Flight Track Log - Related Links

Times and Time Zones

All times are in EDT time to prevent confusion due to time zone crossing. See the PDT4314 flight status page for this flight to view local times or setup timezone preferences in your user account.

Time Position Orientation Groundspeed Altitude Reporting Facility
EDT Latitude Longitude Course Direction KTS MPH feet Rate Location/Type
Tue 08:58:00 PM 42.0101 -75.9148 180° South  Level Estimated
Tue 08:59:00 PM 41.9605 -75.8987 180° South  Level Estimated
Tue 09:00:00 PM 41.9099 -75.9070 187° South  Level FlightAware Approximate
Tue 09:01:00 PM 41.8592 -75.9154 187° South  Level FlightAware Approximate
Tue 09:02:00 PM 41.8085 -75.9237 187° South  Level FlightAware Approximate
Tue 09:03:00 PM 41.7593 -75.9058 154° Southeast  Level Estimated
Tue 09:04:00 PM 41.7100 -75.8879 160° South  Level Estimated
Tue 09:05:00 PM 41.6600 -75.8741 168° South  Level FlightAware Approximate
Tue 09:06:00 PM 41.6108 -75.8561 159° South  Level Estimated
Tue 09:07:00 PM 41.5630 -75.8319 159° South  Level FlightAware Approximate
Tue 09:08:00 PM 41.5153 -75.8077 159° South  Level FlightAware Approximate
Tue 09:09:00 PM 41.4660 -75.7903 153° Southeast  Level Estimated
Tue 09:10:00 PM 41.4166 -75.7729 161° South  Level Estimated
Tue 09:11:00 PM 41.3701 -75.7450 156° South  Level FlightAware Approximate
Tue 09:12:00 PM 41.3235 -75.7172 156° South  Level FlightAware Approximate
Tue 09:13:00 PM 41.2769 -75.6894 156° South  Level FlightAware Approximate
Tue 09:14:00 PM 41.2273 -75.6733 162° South  Level Estimated
Tue 09:15:00 PM 41.1792 -75.6506 161° South  Level FlightAware Approximate
Tue 09:16:00 PM 41.1311 -75.6280 161° South  Level FlightAware Approximate
Tue 09:17:00 PM 41.0829 -75.6055 161° South  Level FlightAware Approximate
Tue 09:18:00 PM 41.0348 -75.5829 161° South  Level FlightAware Approximate
Tue 09:19:00 PM 40.9850 -75.5680 159° South  Level Estimated
Tue 09:20:00 PM 40.9352 -75.5532 163° South  Level Estimated
Tue 09:21:00 PM 40.8872 -75.5304 160° South  Level FlightAware Approximate
Tue 09:22:00 PM 40.8391 -75.5077 160° South  Level FlightAware Approximate
Tue 09:22:23 PM 40.6833 -75.4500 191° South 272 313 6,900  Level Philadelphia TRACON
Tue 09:23:00 PM 40.7910 -75.4850 160° South  Level FlightAware Approximate
Tue 09:23:29 PM 40.6000 -75.4833 197° South 270 311 5,800  Level Philadelphia TRACON
Tue 09:24:00 PM 40.7430 -75.4624 160° South  Level FlightAware Approximate
Tue 09:24:35 PM 40.5167 -75.5000 189° South 263 303 5,000  Level Philadelphia TRACON
Tue 09:25:00 PM 40.6928 -75.4495 190° South  Level Estimated
Tue 09:25:41 PM 40.4500 -75.4500 150° Southeast 243 280 5,000  Level Philadelphia TRACON
Tue 09:26:00 PM 40.6428 -75.4626 191° South  Level FlightAware Approximate
Tue 09:26:29 PM 40.4000 -75.4167 153° Southeast 243 280 5,000  Level Philadelphia TRACON
Tue 09:27:00 PM 40.5927 -75.4757 191° South  Level FlightAware Approximate
Tue 09:27:29 PM 40.3500 -75.3667 143° Southeast 241 277 4,800  Level Philadelphia TRACON
Tue 09:28:29 PM 40.2833 -75.3333 159° South 261 300 4,000 -421 Descending Philadelphia TRACON
Tue 09:29:23 PM 40.2333 -75.2833 143° Southeast 215 247 4,000  Level Philadelphia TRACON
Tue 09:30:17 PM 40.1833 -75.2500 153° Southeast 213 245 4,000  Level Philadelphia TRACON
Tue 09:31:23 PM 40.1333 -75.2167 153° Southeast 214 246 4,000  Level Philadelphia TRACON
Tue 09:32:29 PM 40.0833 -75.1667 143° Southeast 210 242 4,000  Level Philadelphia TRACON
Tue 09:33:29 PM 40.0667 -75.1000 108° East 201 231 4,000  Level Philadelphia TRACON
Tue 09:34:29 PM 40.0500 -75.0167 105° East 197 227 4,000 -158 Level Philadelphia TRACON
Tue 09:35:23 PM 40.0167 -74.9833 143° Southeast 194 223 3,700 -550 Descending Philadelphia TRACON
Tue 09:36:29 PM 39.9667 -75.0167 207° Southwest 180 207 2,900 -524 Descending Philadelphia TRACON
Tue 09:37:29 PM 39.9333 -75.0667 229° Southwest 179 206 2,600 -650 Descending Philadelphia TRACON
Tue 09:38:29 PM 39.9000 -75.1167 229° Southwest 179 206 1,600 -895 Descending Philadelphia TRACON
Tue 09:39:23 PM 39.9000 -75.1667 270° West 134 154 900 -650 Descending Philadelphia TRACON
Tue 09:40:29 PM 39.8833 -75.2000 237° Southwest 95 109 300 -545 Descending Philadelphia TRACON

Login

Don't have an account? Register now (free) for customized features, flight alerts, and more!